Time;durP1;ratioP1;P1;durP2;ratioP2;P2;SDS_P1;SDS_P2;PMS_P1;PMS_P2;Temp;Humidity;BMP_temperature;BMP_pressure;BME280_temperature;BME280_humidity;BME280_pressure;Samples;Min_cycle;Max_cycle;Signal;HPM_P1;HPM_P2
2022/06/29 00:00:12;;;;;;;1.37;1.10;;;17.40;99.90;;;;;;4973658;28;20981;-81
2022/06/29 00:02:39;;;;;;;1.10;1.00;;;17.40;99.90;;;;;;4974626;28;20454;-81
2022/06/29 00:05:08;;;;;;;0.97;0.90;;;17.40;99.90;;;;;;4974507;28;20453;-81
2022/06/29 00:07:35;;;;;;;0.70;0.70;;;17.40;99.90;;;;;;4974279;28;20445;-81
2022/06/29 00:10:02;;;;;;;1.40;1.17;;;17.40;99.90;;;;;;4974341;28;20808;-81
2022/06/29 00:12:29;;;;;;;0.50;0.50;;;17.30;99.90;;;;;;4974787;28;20449;-81
2022/06/29 00:14:56;;;;;;;1.00;0.93;;;17.30;99.90;;;;;;4974470;28;20453;-81
2022/06/29 00:17:23;;;;;;;0.77;0.77;;;17.30;99.90;;;;;;4975217;28;20463;-81
2022/06/29 00:19:50;;;;;;;1.00;0.90;;;17.20;99.90;;;;;;4974436;28;20456;-81
2022/06/29 00:22:19;;;;;;;5.20;1.23;;;17.30;99.90;;;;;;4974461;28;20441;-81
2022/06/29 00:24:45;;;;;;;1.13;1.13;;;17.30;99.90;;;;;;4974414;28;20465;-81
2022/06/29 00:27:12;;;;;;;1.03;1.03;;;17.30;99.90;;;;;;4974121;28;20482;-81
2022/06/29 00:29:39;;;;;;;1.03;0.90;;;17.20;99.90;;;;;;4974398;28;20445;-81
2022/06/29 00:32:06;;;;;;;1.00;0.90;;;17.20;99.90;;;;;;4974080;28;20496;-81
2022/06/29 00:34:33;;;;;;;1.60;1.13;;;17.20;99.90;;;;;;4974051;28;20452;-81
2022/06/29 00:37:01;;;;;;;0.93;0.80;;;17.20;99.90;;;;;;4975026;28;20488;-81
2022/06/29 00:39:29;;;;;;;0.80;0.80;;;17.20;99.90;;;;;;4974533;28;20449;-81
2022/06/29 00:41:55;;;;;;;0.70;0.70;;;17.20;99.90;;;;;;4973982;28;20803;-81
2022/06/29 00:44:22;;;;;;;1.43;0.80;;;17.20;99.90;;;;;;4974294;28;20438;-81
2022/06/29 00:46:51;;;;;;;1.10;0.73;;;17.20;99.90;;;;;;4974112;28;20461;-81
2022/06/29 00:49:19;;;;;;;1.00;0.90;;;17.20;99.90;;;;;;4973858;28;20453;-81
2022/06/29 00:51:50;;;;;;;0.87;0.87;;;17.20;99.90;;;;;;4974140;28;20491;-81
2022/06/29 00:54:20;;;;;;;1.30;0.80;;;17.20;99.90;;;;;;4974984;28;20430;-81
2022/06/29 00:56:48;;;;;;;1.20;1.00;;;17.20;99.90;;;;;;4974041;28;20478;-81
2022/06/29 00:59:20;;;;;;;1.13;1.00;;;17.20;99.90;;;;;;4974149;28;20449;-81
2022/06/29 01:01:47;;;;;;;1.13;1.03;;;17.20;99.90;;;;;;4974494;28;20481;-82
2022/06/29 01:04:14;;;;;;;1.63;0.93;;;17.20;99.90;;;;;;4973799;28;20440;-82
2022/06/29 01:06:41;;;;;;;1.43;1.33;;;17.20;99.90;;;;;;4973763;28;20458;-82
2022/06/29 01:09:08;;;;;;;1.20;1.10;;;17.20;99.90;;;;;;4973803;28;20480;-82
2022/06/29 01:11:35;;;;;;;1.20;0.97;;;17.20;99.90;;;;;;4975187;28;20485;-82
2022/06/29 01:14:03;;;;;;;0.80;0.80;;;17.20;99.90;;;;;;4977252;28;20843;-82
2022/06/29 01:16:30;;;;;;;0.80;0.80;;;17.20;99.90;;;;;;4977421;28;20469;-82
2022/06/29 01:18:57;;;;;;;1.33;0.93;;;17.10;99.90;;;;;;4977879;28;20464;-83
2022/06/29 01:21:27;;;;;;;1.10;1.00;;;17.10;99.90;;;;;;4977105;28;20946;-83
2022/06/29 01:23:55;;;;;;;1.23;0.83;;;17.10;99.90;;;;;;4977495;28;20442;-83
2022/06/29 01:26:22;;;;;;;1.30;0.90;;;17.10;99.90;;;;;;4977329;28;20473;-82
2022/06/29 01:28:49;;;;;;;1.80;0.83;;;17.10;99.90;;;;;;4977268;28;20459;-82
2022/06/29 01:31:17;;;;;;;1.37;1.17;;;17.10;99.90;;;;;;4976873;28;20492;-83
2022/06/29 01:33:45;;;;;;;0.90;0.70;;;17.00;99.90;;;;;;4977224;28;20456;-83
2022/06/29 01:36:12;;;;;;;0.70;0.60;;;17.00;99.90;;;;;;4977237;28;20469;-83
2022/06/29 01:38:40;;;;;;;1.03;0.90;;;17.00;99.90;;;;;;4976989;28;20461;-84
2022/06/29 01:41:10;;;;;;;1.73;1.10;;;17.00;99.90;;;;;;4977021;28;20448;-83
2022/06/29 01:43:37;;;;;;;1.00;0.90;;;17.00;99.90;;;;;;4976784;28;20536;-83
2022/06/29 01:46:04;;;;;;;1.87;0.97;;;17.00;99.90;;;;;;4977014;28;20477;-83
2022/06/29 01:48:30;;;;;;;0.80;0.80;;;17.00;99.90;;;;;;4976970;28;20456;-83
2022/06/29 01:50:57;;;;;;;2.13;0.80;;;17.00;99.90;;;;;;4976787;28;20499;-83
2022/06/29 01:53:24;;;;;;;1.93;1.30;;;17.00;99.90;;;;;;4976621;28;20445;-83
2022/06/29 01:55:51;;;;;;;1.70;0.90;;;17.00;99.90;;;;;;4976414;28;20480;-83
2022/06/29 01:58:19;;;;;;;1.20;1.10;;;17.00;99.90;;;;;;4976770;28;20442;-83
2022/06/29 02:00:46;;;;;;;2.10;1.13;;;17.00;99.90;;;;;;4976718;28;20445;-83
2022/06/29 02:03:14;;;;;;;0.70;0.70;;;16.90;99.90;;;;;;4976768;28;20457;-84
2022/06/29 02:05:40;;;;;;;2.47;0.93;;;16.90;99.90;;;;;;4976709;28;20473;-83
2022/06/29 02:08:07;;;;;;;1.73;0.93;;;16.90;99.90;;;;;;4976560;28;20501;-83
2022/06/29 02:10:34;;;;;;;2.20;0.90;;;16.90;99.90;;;;;;4976376;28;20910;-83
2022/06/29 02:13:01;;;;;;;1.10;0.87;;;16.90;99.90;;;;;;4976484;28;20452;-83
2022/06/29 02:15:29;;;;;;;2.30;1.20;;;16.80;99.90;;;;;;4976436;28;20477;-82
2022/06/29 02:17:56;;;;;;;5.10;1.07;;;16.80;99.90;;;;;;4975983;28;20880;-82
2022/06/29 02:20:23;;;;;;;1.27;1.07;;;16.80;99.90;;;;;;4976241;28;20525;-82
2022/06/29 02:22:49;;;;;;;1.00;0.60;;;16.80;99.90;;;;;;4975876;28;20451;-80
2022/06/29 02:25:16;;;;;;;1.00;0.90;;;16.80;99.90;;;;;;4976152;28;20474;-80
2022/06/29 02:27:46;;;;;;;1.00;0.67;;;16.80;99.90;;;;;;4976196;28;20458;-80
2022/06/29 02:30:13;;;;;;;1.10;1.00;;;16.80;99.90;;;;;;4976156;28;20457;-80
2022/06/29 02:35:26;;;;;;;1.20;1.10;;;16.80;99.90;;;;;;4975889;28;20452;-80
2022/06/29 02:37:52;;;;;;;0.90;0.90;;;16.80;99.90;;;;;;4976008;28;20456;-80
2022/06/29 02:40:19;;;;;;;1.23;0.87;;;16.70;99.90;;;;;;4975929;28;20457;-80
2022/06/29 02:42:46;;;;;;;1.07;0.97;;;16.70;99.90;;;;;;4975668;28;20441;-80
2022/06/29 02:45:13;;;;;;;1.00;0.80;;;16.70;99.90;;;;;;4976424;28;20842;-80
2022/06/29 02:47:39;;;;;;;1.10;1.00;;;16.70;99.90;;;;;;4975793;28;20457;-80
2022/06/29 02:50:08;;;;;;;0.80;0.70;;;16.70;99.90;;;;;;4975768;28;20451;-80
2022/06/29 02:52:35;;;;;;;1.00;0.70;;;16.80;99.90;;;;;;4975438;28;20472;-80
2022/06/29 02:55:02;;;;;;;1.10;0.90;;;16.80;99.90;;;;;;4975616;28;20449;-80
2022/06/29 02:57:29;;;;;;;1.10;0.70;;;16.80;99.90;;;;;;4975619;28;20456;-80
2022/06/29 02:59:55;;;;;;;0.73;0.73;;;16.80;99.90;;;;;;4975579;28;20521;-79
2022/06/29 03:02:22;;;;;;;1.13;0.90;;;16.80;99.90;;;;;;4975575;28;20441;-80
2022/06/29 03:04:49;;;;;;;1.90;1.07;;;16.80;99.90;;;;;;4975492;28;20821;-80
2022/06/29 03:07:17;;;;;;;1.70;0.63;;;16.80;99.90;;;;;;4975095;28;20989;-80
2022/06/29 03:09:44;;;;;;;1.67;0.87;;;16.70;99.90;;;;;;4975071;28;20491;-80
2022/06/29 03:12:10;;;;;;;1.20;1.10;;;16.70;99.90;;;;;;4975306;28;20493;-80
2022/06/29 03:14:38;;;;;;;0.80;0.80;;;16.70;99.90;;;;;;4975330;28;20457;-80
2022/06/29 03:17:04;;;;;;;0.87;0.77;;;16.80;99.90;;;;;;4974984;28;21031;-80
2022/06/29 03:19:31;;;;;;;2.30;1.73;;;16.70;99.90;;;;;;4975267;28;20456;-80
2022/06/29 03:21:58;;;;;;;1.50;1.30;;;16.70;99.90;;;;;;4974883;28;20823;-80
2022/06/29 03:24:26;;;;;;;1.47;0.83;;;16.70;99.90;;;;;;4975165;28;20453;-80
2022/06/29 03:26:53;;;;;;;0.90;0.70;;;16.70;99.90;;;;;;4975076;28;20469;-80
2022/06/29 03:29:19;;;;;;;2.03;1.10;;;16.70;99.90;;;;;;4975146;28;20458;-80
2022/06/29 03:31:46;;;;;;;1.10;1.00;;;16.70;99.90;;;;;;4975001;28;20488;-80
2022/06/29 03:34:13;;;;;;;1.13;0.90;;;16.60;99.90;;;;;;4974324;28;20500;-80
2022/06/29 03:36:40;;;;;;;1.17;1.03;;;16.60;99.90;;;;;;4974426;28;20981;-80
2022/06/29 03:39:06;;;;;;;1.03;0.83;;;16.60;99.90;;;;;;4974648;28;20957;-80
2022/06/29 03:41:35;;;;;;;0.90;0.83;;;16.60;99.90;;;;;;4974888;28;20449;-80
2022/06/29 03:44:01;;;;;;;2.20;1.20;;;16.50;99.90;;;;;;4974879;28;20452;-80
2022/06/29 03:46:28;;;;;;;1.03;1.03;;;16.50;99.90;;;;;;4974782;28;20481;-80
2022/06/29 03:48:55;;;;;;;1.37;1.00;;;16.50;99.90;;;;;;4975170;28;20464;-80
2022/06/29 03:51:21;;;;;;;1.30;1.10;;;16.50;99.90;;;;;;4974559;28;20438;-80
2022/06/29 03:53:48;;;;;;;0.60;0.60;;;16.50;99.90;;;;;;4974447;28;20464;-80
2022/06/29 03:56:15;;;;;;;1.27;0.80;;;16.50;99.90;;;;;;4974643;28;20473;-80
2022/06/29 03:58:43;;;;;;;1.00;0.90;;;16.50;99.90;;;;;;4974677;28;20456;-80
2022/06/29 04:01:10;;;;;;;1.73;0.90;;;16.50;99.90;;;;;;4974688;28;20438;-80
2022/06/29 04:03:37;;;;;;;1.37;1.27;;;16.50;99.90;;;;;;4974633;28;20497;-80
2022/06/29 04:06:04;;;;;;;1.33;1.00;;;16.50;99.90;;;;;;4974637;28;20476;-80
2022/06/29 04:08:31;;;;;;;1.10;0.90;;;16.60;99.90;;;;;;4974279;28;20482;-80
2022/06/29 04:10:57;;;;;;;0.97;0.87;;;16.60;99.90;;;;;;4975282;28;20437;-80
2022/06/29 04:13:24;;;;;;;1.53;1.43;;;16.70;99.90;;;;;;4974508;28;20493;-80
2022/06/29 04:15:52;;;;;;;1.00;1.00;;;16.70;99.90;;;;;;4974502;28;20469;-80
2022/06/29 04:18:19;;;;;;;0.90;0.77;;;16.70;99.90;;;;;;4974504;28;20453;-80
2022/06/29 04:23:30;;;;;;;1.00;0.87;;;16.80;99.90;;;;;;4974856;28;20900;-80
2022/06/29 04:25:57;;;;;;;0.80;0.80;;;16.80;99.90;;;;;;4974334;28;20480;-80
2022/06/29 04:28:24;;;;;;;1.60;1.30;;;16.90;99.90;;;;;;4974105;28;20942;-80
2022/06/29 04:30:52;;;;;;;1.43;0.80;;;16.90;99.90;;;;;;4974050;28;20980;-80
2022/06/29 04:33:19;;;;;;;1.37;0.77;;;16.90;99.90;;;;;;4974043;28;20477;-80
2022/06/29 04:35:45;;;;;;;1.20;1.00;;;16.90;99.90;;;;;;4974019;28;20457;-80
2022/06/29 04:38:12;;;;;;;1.90;1.10;;;17.00;99.90;;;;;;4974321;28;20456;-80
2022/06/29 04:40:39;;;;;;;0.80;0.80;;;17.00;99.90;;;;;;4974026;28;20442;-80
2022/06/29 04:43:06;;;;;;;0.83;0.67;;;17.10;99.90;;;;;;4974249;28;20956;-80
2022/06/29 04:48:33;;;;;;;1.23;1.13;;;17.20;99.90;;;;;;4918810;29;20463;-80
2022/06/29 04:50:59;;;;;;;1.37;0.90;;;17.30;99.90;;;;;;4918285;29;20504;-80
2022/06/29 04:53:26;;;;;;;0.70;0.70;;;17.30;99.90;;;;;;4943978;28;20484;-80
2022/06/29 04:55:53;;;;;;;1.07;1.07;;;17.40;99.90;;;;;;4977610;28;20468;-80
2022/06/29 04:58:20;;;;;;;1.37;0.93;;;17.50;99.90;;;;;;4977548;28;20949;-80
2022/06/29 05:00:46;;;;;;;1.83;1.03;;;17.50;99.90;;;;;;4977852;28;20462;-80
2022/06/29 05:03:13;;;;;;;1.50;1.00;;;17.60;99.90;;;;;;4977472;28;20826;-80
2022/06/29 05:05:41;;;;;;;0.73;0.73;;;17.60;99.90;;;;;;4977638;28;20504;-80
2022/06/29 05:08:08;;;;;;;0.90;0.90;;;17.70;99.90;;;;;;4977417;28;20469;-81
2022/06/29 05:10:35;;;;;;;1.23;1.07;;;17.70;99.90;;;;;;4977370;28;20924;-80
2022/06/29 05:13:02;;;;;;;1.30;1.20;;;17.80;99.90;;;;;;4977259;28;20487;-80
2022/06/29 05:15:29;;;;;;;1.00;0.90;;;17.90;99.90;;;;;;4977618;28;20472;-80
2022/06/29 05:17:56;;;;;;;2.23;1.30;;;17.90;99.90;;;;;;4977460;28;20460;-80
2022/06/29 05:20:22;;;;;;;1.27;1.07;;;18.00;99.90;;;;;;4977474;28;20457;-80
2022/06/29 05:22:52;;;;;;;1.10;1.00;;;18.10;99.90;;;;;;4977452;28;20540;-80
2022/06/29 05:25:19;;;;;;;1.73;1.00;;;18.10;99.90;;;;;;4976998;28;20480;-80
2022/06/29 05:27:46;;;;;;;1.47;0.80;;;18.20;99.90;;;;;;4977534;28;20477;-80
2022/06/29 05:30:13;;;;;;;3.13;1.20;;;18.30;99.90;;;;;;4977264;28;20460;-80
2022/06/29 05:32:40;;;;;;;1.10;1.10;;;18.40;99.90;;;;;;4977184;28;20495;-80
2022/06/29 05:35:08;;;;;;;1.43;0.90;;;18.50;99.90;;;;;;4977127;28;20463;-80
2022/06/29 05:37:35;;;;;;;0.83;0.83;;;18.50;99.90;;;;;;4977490;28;20457;-80
2022/06/29 05:40:04;;;;;;;1.13;0.90;;;18.60;99.90;;;;;;4977903;28;20453;-80
2022/06/29 05:42:31;;;;;;;1.20;1.10;;;18.70;99.90;;;;;;4977095;28;20452;-80
2022/06/29 05:44:58;;;;;;;1.33;1.23;;;18.80;99.90;;;;;;4976925;28;20528;-80
2022/06/29 05:47:24;;;;;;;1.33;1.23;;;18.90;99.90;;;;;;4976817;28;20983;-80
2022/06/29 05:49:51;;;;;;;3.60;1.50;;;19.00;99.90;;;;;;4977014;28;20448;-80
2022/06/29 05:52:18;;;;;;;1.00;0.80;;;19.10;99.90;;;;;;4976599;28;20474;-80
2022/06/29 05:54:45;;;;;;;2.03;1.33;;;19.20;99.90;;;;;;4977072;28;20485;-80
2022/06/29 05:57:13;;;;;;;1.47;1.17;;;19.30;99.90;;;;;;4976316;28;20479;-80
2022/06/29 05:59:40;;;;;;;1.03;0.93;;;19.40;99.90;;;;;;4976119;28;20453;-80
2022/06/29 06:02:07;;;;;;;0.77;0.77;;;19.60;99.90;;;;;;4976507;28;20429;-80
2022/06/29 06:04:34;;;;;;;1.20;1.10;;;19.80;99.90;;;;;;4976625;28;20449;-80
2022/06/29 06:07:01;;;;;;;0.93;0.90;;;19.90;99.90;;;;;;4976575;28;20480;-80
2022/06/29 06:09:28;;;;;;;0.97;0.70;;;20.10;99.90;;;;;;4976116;28;20852;-80
2022/06/29 06:11:55;;;;;;;3.93;1.20;;;20.20;99.90;;;;;;4976244;28;20932;-81
2022/06/29 06:14:23;;;;;;;1.10;1.00;;;20.40;99.90;;;;;;4976343;28;20866;-80
2022/06/29 06:16:50;;;;;;;1.40;1.10;;;20.60;99.90;;;;;;4976094;28;20988;-81
2022/06/29 06:19:17;;;;;;;0.90;0.90;;;20.80;99.90;;;;;;4976148;28;20437;-81
2022/06/29 06:21:44;;;;;;;1.30;1.20;;;21.00;99.90;;;;;;4976384;28;20460;-80
2022/06/29 06:24:11;;;;;;;1.77;1.13;;;21.20;99.90;;;;;;4976026;28;20949;-81
2022/06/29 06:26:38;;;;;;;2.90;1.77;;;21.40;99.90;;;;;;4976194;28;20480;-81
2022/06/29 06:29:05;;;;;;;1.02;0.93;;;21.70;99.90;;;;;;4976287;28;20228;-81
2022/06/29 06:31:34;;;;;;;2.45;1.77;;;22.10;99.90;;;;;;4976188;28;20205;-81
2022/06/29 06:34:01;;;;;;;2.78;1.48;;;22.60;99.90;;;;;;4976277;28;20225;-80
2022/06/29 06:36:28;;;;;;;2.10;1.15;;;23.00;99.90;;;;;;4976007;28;20232;-81
2022/06/29 06:38:54;;;;;;;1.40;1.30;;;23.30;99.90;;;;;;4975936;28;20670;-80
2022/06/29 06:41:23;;;;;;;1.42;1.33;;;23.50;99.90;;;;;;4976008;28;20231;-80
2022/06/29 06:43:50;;;;;;;3.67;1.95;;;23.50;99.90;;;;;;4975901;28;20193;-80
2022/06/29 06:46:17;;;;;;;1.45;1.20;;;23.70;99.90;;;;;;4975777;28;20233;-80
2022/06/29 06:48:46;;;;;;;1.33;1.23;;;23.90;99.90;;;;;;4976216;28;20288;-80
2022/06/29 06:51:13;;;;;;;1.48;1.38;;;24.00;99.90;;;;;;4975561;28;20198;-80
2022/06/29 06:53:40;;;;;;;1.38;1.27;;;23.90;99.90;;;;;;4975684;28;20232;-80
2022/06/29 06:56:07;;;;;;;1.20;1.10;;;24.00;99.90;;;;;;4975630;28;20229;-80
2022/06/29 06:58:35;;;;;;;2.05;1.45;;;24.10;99.90;;;;;;4975380;28;20205;-80
2022/06/29 07:01:03;;;;;;;1.55;1.30;;;24.10;99.90;;;;;;4975350;28;20685;-80
2022/06/29 07:03:31;;;;;;;1.60;1.50;;;24.20;99.90;;;;;;4975332;28;20205;-80
2022/06/29 07:06:00;;;;;;;1.52;1.40;;;24.10;99.90;;;;;;4975188;28;20803;-80
2022/06/29 07:08:27;;;;;;;1.55;1.45;;;24.20;99.90;;;;;;4975274;28;20848;-80
2022/06/29 07:10:54;;;;;;;1.50;1.40;;;24.20;99.90;;;;;;4975121;28;20201;-80
2022/06/29 07:13:21;;;;;;;1.45;1.35;;;24.10;99.90;;;;;;4975380;28;20227;-80
2022/06/29 07:15:48;;;;;;;2.17;1.05;;;24.10;99.90;;;;;;4975287;28;20227;-80
2022/06/29 07:18:14;;;;;;;1.30;1.13;;;24.10;99.90;;;;;;4976170;28;20209;-80
2022/06/29 07:20:42;;;;;;;1.40;1.30;;;24.10;99.90;;;;;;4975321;28;20205;-80
2022/06/29 07:23:10;;;;;;;1.42;1.33;;;24.10;99.90;;;;;;4975533;28;20204;-81
2022/06/29 07:25:37;;;;;;;1.60;1.30;;;24.10;99.90;;;;;;4975306;28;20229;-81
2022/06/29 07:28:05;;;;;;;1.42;1.33;;;24.20;99.90;;;;;;4975390;28;20220;-80
2022/06/29 07:30:32;;;;;;;8.85;1.15;;;24.30;99.90;;;;;;4975147;28;20205;-81
2022/06/29 07:32:59;;;;;;;1.45;1.35;;;24.40;99.90;;;;;;4974863;28;20613;-81
2022/06/29 07:35:26;;;;;;;1.35;1.05;;;24.30;99.90;;;;;;4974733;28;20732;-81
2022/06/29 07:37:53;;;;;;;2.00;1.40;;;24.30;99.90;;;;;;4975173;28;20205;-81
2022/06/29 07:40:21;;;;;;;1.65;1.55;;;24.40;99.90;;;;;;4974693;28;20558;-80
2022/06/29 07:42:48;;;;;;;1.50;1.30;;;24.60;99.90;;;;;;4974660;28;20216;-80
2022/06/29 07:45:16;;;;;;;1.73;1.63;;;24.90;99.90;;;;;;4974773;28;20593;-80
2022/06/29 07:47:44;;;;;;;2.03;1.45;;;25.10;99.90;;;;;;4975132;28;20206;-80
2022/06/29 07:50:12;;;;;;;3.25;1.85;;;25.30;99.90;;;;;;4974872;28;20199;-80
2022/06/29 07:52:39;;;;;;;2.35;1.95;;;25.30;99.90;;;;;;4974728;28;20222;-80
2022/06/29 07:55:06;;;;;;;4.05;1.95;;;25.60;99.90;;;;;;4974722;28;20202;-80
2022/06/29 07:57:35;;;;;;;1.35;1.25;;;25.70;99.90;;;;;;4974451;28;20677;-80
2022/06/29 08:00:03;;;;;;;1.55;1.45;;;25.90;99.90;;;;;;4974742;28;20213;-80
2022/06/29 08:02:29;;;;;;;2.00;1.58;;;26.00;99.90;;;;;;4974387;28;20201;-81
2022/06/29 08:04:58;;;;;;;1.30;1.20;;;26.10;99.90;;;;;;4974588;28;20205;-80
2022/06/29 08:07:25;;;;;;;1.60;1.42;;;26.30;99.90;;;;;;4974658;28;20205;-80
2022/06/29 08:09:53;;;;;;;1.50;1.40;;;26.50;99.90;;;;;;4974333;28;20241;-80
2022/06/29 08:12:19;;;;;;;3.10;1.65;;;26.70;99.90;;;;;;4974806;28;20260;-80
2022/06/29 08:14:47;;;;;;;2.17;1.63;;;27.00;99.90;;;;;;4974507;28;20255;-81
2022/06/29 08:17:14;;;;;;;1.85;1.75;;;27.20;99.90;;;;;;4974363;28;20225;-80
2022/06/29 08:19:41;;;;;;;1.73;1.63;;;27.30;99.90;;;;;;4974513;28;20205;-80
2022/06/29 08:22:08;;;;;;;1.58;1.48;;;27.20;99.90;;;;;;4976873;28;20213;-80
2022/06/29 08:24:34;;;;;;;3.72;1.70;;;27.00;99.90;;;;;;4978344;28;20208;-83
2022/06/29 08:27:01;;;;;;;1.60;1.50;;;26.60;99.90;;;;;;4978148;28;20218;-79
2022/06/29 08:29:28;;;;;;;2.15;1.75;;;26.30;99.90;;;;;;4978412;28;20209;-79
2022/06/29 08:31:56;;;;;;;1.10;1.00;;;26.00;99.90;;;;;;4978073;28;20700;-79
2022/06/29 08:34:23;;;;;;;1.48;1.38;;;25.70;99.90;;;;;;4977943;28;20223;-79
2022/06/29 08:36:49;;;;;;;1.83;1.60;;;25.40;99.90;;;;;;4978257;28;20221;-79
2022/06/29 08:39:17;;;;;;;1.73;1.00;;;25.30;99.90;;;;;;4978251;28;20205;-79
2022/06/29 08:41:44;;;;;;;1.75;1.65;;;25.40;99.90;;;;;;4978225;28;20272;-80
2022/06/29 08:44:12;;;;;;;1.23;1.17;;;25.40;99.90;;;;;;4978159;28;20213;-80
2022/06/29 08:46:38;;;;;;;1.48;1.38;;;25.20;99.90;;;;;;4978049;28;20235;-80
2022/06/29 08:49:07;;;;;;;1.40;1.30;;;25.00;99.90;;;;;;4978066;28;20228;-80
2022/06/29 08:51:35;;;;;;;3.40;1.98;;;24.80;99.90;;;;;;4978048;28;20189;-80
2022/06/29 08:54:06;;;;;;;1.33;1.23;;;24.70;99.90;;;;;;4977931;28;20221;-79
2022/06/29 08:56:35;;;;;;;1.20;1.20;;;24.70;99.90;;;;;;4977867;28;20221;-79
2022/06/29 08:59:03;;;;;;;1.23;1.13;;;24.80;99.90;;;;;;4977847;28;20198;-79
2022/06/29 09:01:30;;;;;;;1.38;1.20;;;25.00;99.90;;;;;;4977561;28;20224;-80
2022/06/29 09:03:57;;;;;;;1.20;1.10;;;24.90;99.90;;;;;;4977570;28;20256;-80
2022/06/29 09:06:26;;;;;;;3.50;1.92;;;24.90;99.90;;;;;;4977695;28;20309;-80
2022/06/29 09:08:52;;;;;;;1.73;1.63;;;25.00;99.90;;;;;;4977458;28;20237;-80
2022/06/29 09:11:27;;;;;;;1.30;1.20;;;25.00;99.90;;;;;;4977422;28;20572;-80
2022/06/29 09:14:15;;;;;;;1.20;1.10;;;25.10;99.90;;;;;;4977279;28;20573;-79
2022/06/29 09:17:04;;;;;;;3.20;1.60;;;25.50;99.90;;;;;;4977325;28;20719;-79
2022/06/29 09:19:44;;;;;;;1.10;1.10;;;25.90;99.90;;;;;;4973561;28;20607;-79
2022/06/29 09:22:12;;;;;;;1.63;1.00;;;26.20;99.90;;;;;;4977513;28;20182;-79
2022/06/29 09:24:39;;;;;;;2.72;1.45;;;26.40;99.90;;;;;;4977338;28;20213;-79
2022/06/29 09:27:08;;;;;;;1.25;1.15;;;26.50;99.90;;;;;;4977330;28;20230;-79
2022/06/29 09:29:39;;;;;;;2.10;1.40;;;26.30;99.90;;;;;;4977045;28;20201;-79
2022/06/29 09:32:11;;;;;;;1.40;1.30;;;26.10;99.90;;;;;;4977946;28;20201;-79
2022/06/29 09:34:39;;;;;;;0.90;0.90;;;25.80;99.90;;;;;;4977476;28;20240;-78
2022/06/29 09:37:08;;;;;;;1.67;1.58;;;25.70;99.90;;;;;;4976882;28;20721;-79
2022/06/29 09:39:37;;;;;;;1.17;1.17;;;25.60;99.90;;;;;;4977159;28;20209;-79
2022/06/29 09:42:05;;;;;;;2.10;1.73;;;25.40;99.90;;;;;;4976742;28;20579;-79
2022/06/29 09:44:33;;;;;;;0.90;0.90;;;25.20;99.90;;;;;;4977064;28;20197;-79
2022/06/29 09:47:02;;;;;;;2.25;1.50;;;25.10;99.90;;;;;;4976864;28;20225;-79
2022/06/29 09:49:30;;;;;;;1.92;1.65;;;25.00;99.90;;;;;;4976951;28;20205;-79
2022/06/29 09:51:58;;;;;;;1.23;1.17;;;25.00;99.90;;;;;;4976741;28;20197;-79
2022/06/29 09:54:27;;;;;;;2.03;1.88;;;25.00;99.90;;;;;;4976860;28;20213;-79
2022/06/29 09:56:57;;;;;;;0.98;0.98;;;25.00;99.90;;;;;;4976794;28;20229;-79
2022/06/29 10:05:01;;;;;;;2.15;1.27;;;24.90;99.90;;;;;;4976208;28;20781;-79
2022/06/29 10:07:29;;;;;;;1.00;1.00;;;24.90;99.90;;;;;;4976313;28;20212;-79
2022/06/29 10:09:56;;;;;;;1.00;0.90;;;25.00;99.90;;;;;;4976270;28;20296;-79
2022/06/29 10:15:27;;;;;;;2.25;1.20;;;25.10;99.90;;;;;;4976390;28;20316;-79
2022/06/29 10:18:04;;;;;;;1.25;1.15;;;25.10;99.90;;;;;;4976517;28;20189;-79
2022/06/29 10:20:42;;;;;;;1.20;1.10;;;25.20;99.90;;;;;;4976178;28;20181;-79
2022/06/29 10:23:08;;;;;;;1.20;1.02;;;25.20;99.90;;;;;;4976108;28;20197;-79
2022/06/29 10:25:37;;;;;;;1.15;1.15;;;25.10;99.90;;;;;;4975922;28;20604;-79
2022/06/29 10:28:16;;;;;;;1.17;1.15;;;25.20;99.90;;;;;;4975992;28;20213;-79
2022/06/29 10:30:43;;;;;;;1.30;1.20;;;25.40;99.90;;;;;;4976309;28;20197;-79
2022/06/29 10:33:33;;;;;;;1.05;0.95;;;25.70;99.90;;;;;;4976400;28;20202;-79
2022/06/29 10:36:04;;;;;;;1.08;0.95;;;26.10;99.90;;;;;;4976046;28;20353;-79
2022/06/29 10:38:32;;;;;;;0.80;0.80;;;26.40;99.90;;;;;;4975805;28;20240;-79
2022/06/29 10:43:07;;;;;;;1.50;1.27;;;26.70;99.90;;;;;;4976040;28;20209;-79
2022/06/29 10:43:57;;;;;;;1.30;1.20;;;26.90;99.90;;;;;;4975013;28;20299;-79
2022/06/29 10:46:24;;;;;;;2.65;1.02;;;26.90;99.90;;;;;;4975860;28;20225;-79
2022/06/29 10:49:18;;;;;;;3.85;1.52;;;26.80;99.90;;;;;;4975924;28;20194;-79
2022/06/29 10:51:47;;;;;;;1.75;1.65;;;26.60;99.90;;;;;;4975877;28;20194;-79
2022/06/29 10:54:31;;;;;;;1.15;1.05;;;26.20;99.90;;;;;;4975489;28;20361;-79
2022/06/29 10:56:59;;;;;;;1.30;1.20;;;25.90;99.90;;;;;;4975721;28;20232;-79
2022/06/29 10:59:35;;;;;;;1.73;1.20;;;25.70;99.90;;;;;;4975530;28;20201;-79
2022/06/29 11:02:09;;;;;;;1.88;1.00;;;25.50;99.90;;;;;;4975707;28;20193;-79
2022/06/29 11:04:35;;;;;;;0.80;0.80;;;25.30;99.90;;;;;;4975293;28;20208;-78
2022/06/29 11:12:34;;;;;;;1.98;1.20;;;25.10;99.90;;;;;;4975584;28;20241;-80
2022/06/29 11:17:47;;;;;;;1.45;1.35;;;25.10;99.90;;;;;;4975247;28;20192;-80
2022/06/29 11:20:18;;;;;;;1.85;1.67;;;25.00;99.90;;;;;;4975020;28;20237;-80
2022/06/29 11:22:52;;;;;;;1.33;1.23;;;25.00;99.90;;;;;;4975291;28;20210;-79
2022/06/29 11:25:19;;;;;;;1.35;0.90;;;25.20;99.90;;;;;;4975219;28;20225;-80
2022/06/29 11:27:46;;;;;;;0.90;0.90;;;25.30;99.90;;;;;;4975182;28;20205;-79
2022/06/29 11:30:20;;;;;;;1.58;1.48;;;25.30;99.90;;;;;;4974860;28;20209;-78
2022/06/29 11:32:48;;;;;;;1.33;1.23;;;25.40;99.90;;;;;;4975170;28;20197;-77
2022/06/29 11:35:17;;;;;;;2.17;1.60;;;25.50;99.90;;;;;;4974897;28;20240;-77
2022/06/29 11:37:52;;;;;;;1.75;1.50;;;25.60;99.90;;;;;;4975027;28;20212;-82
2022/06/29 11:40:20;;;;;;;0.98;0.98;;;25.80;99.90;;;;;;4975279;28;20201;-80
2022/06/29 11:43:05;;;;;;;1.92;1.77;;;26.10;99.90;;;;;;4974987;28;20206;-82
2022/06/29 11:45:43;;;;;;;1.70;1.50;;;26.40;99.90;;;;;;4974590;28;20221;-82
2022/06/29 11:48:15;;;;;;;1.38;1.10;;;26.50;99.90;;;;;;4974885;28;20669;-82
2022/06/29 11:50:43;;;;;;;1.77;1.50;;;26.60;99.90;;;;;;4974880;28;20201;-81
2022/06/29 11:53:10;;;;;;;1.30;1.20;;;26.50;99.90;;;;;;4974833;28;20205;-82
2022/06/29 11:55:45;;;;;;;1.50;1.30;;;26.40;99.90;;;;;;4973679;28;20683;-81
2022/06/29 11:58:14;;;;;;;3.80;1.58;;;26.30;99.90;;;;;;4974500;28;20637;-81
2022/06/29 12:00:44;;;;;;;2.05;1.65;;;26.10;99.90;;;;;;4974492;28;20208;-82
2022/06/29 12:03:14;;;;;;;1.08;1.02;;;26.20;99.90;;;;;;4974651;28;20213;-81
2022/06/29 12:05:56;;;;;;;1.98;1.80;;;26.30;99.90;;;;;;4974331;28;20745;-81
2022/06/29 12:08:22;;;;;;;1.63;1.52;;;26.40;99.90;;;;;;4974137;28;20863;-83
2022/06/29 12:10:49;;;;;;;1.40;1.30;;;26.40;99.90;;;;;;4974606;28;20189;-81
2022/06/29 12:13:16;;;;;;;2.40;1.63;;;26.50;99.90;;;;;;4974596;28;20216;-81
2022/06/29 12:15:44;;;;;;;1.58;1.10;;;26.50;99.90;;;;;;4975247;28;20229;-82
2022/06/29 12:18:11;;;;;;;1.52;1.42;;;26.50;99.90;;;;;;4974554;28;20235;-81
2022/06/29 12:20:38;;;;;;;2.35;1.80;;;26.60;99.90;;;;;;4974404;28;20685;-81
2022/06/29 12:23:05;;;;;;;1.75;1.60;;;26.30;99.90;;;;;;4974748;28;20205;-81
2022/06/29 12:25:32;;;;;;;1.60;1.30;;;26.30;99.90;;;;;;4974636;28;20320;-81
2022/06/29 12:27:58;;;;;;;1.38;1.27;;;26.20;99.90;;;;;;4974529;28;20211;-82
2022/06/29 12:30:25;;;;;;;1.52;1.42;;;26.20;99.90;;;;;;4974193;28;20204;-81
2022/06/29 12:32:53;;;;;;;1.88;1.35;;;26.10;99.90;;;;;;4974431;28;20205;-81
2022/06/29 12:35:20;;;;;;;1.27;1.27;;;26.10;99.90;;;;;;4974239;28;20229;-81
2022/06/29 12:37:47;;;;;;;1.75;1.30;;;26.10;99.90;;;;;;4974400;28;20216;-81
2022/06/29 12:40:14;;;;;;;1.85;1.75;;;26.20;99.90;;;;;;4974340;28;20212;-81
2022/06/29 12:42:41;;;;;;;1.33;1.23;;;26.40;99.90;;;;;;4974608;28;20209;-81
2022/06/29 12:45:09;;;;;;;1.73;1.60;;;26.40;99.90;;;;;;4974259;28;20205;-82
2022/06/29 12:47:35;;;;;;;2.50;1.35;;;26.30;99.90;;;;;;4974340;28;20209;-82
2022/06/29 12:50:04;;;;;;;1.23;1.13;;;26.10;99.90;;;;;;4973985;28;20205;-81
2022/06/29 12:52:31;;;;;;;1.73;1.63;;;25.90;99.90;;;;;;4973962;28;20704;-81
2022/06/29 12:54:57;;;;;;;1.52;1.40;;;25.80;99.90;;;;;;4973809;28;20732;-82
2022/06/29 12:57:24;;;;;;;1.33;1.23;;;25.80;99.90;;;;;;4974211;28;20217;-81
2022/06/29 12:59:51;;;;;;;1.52;1.42;;;25.80;99.90;;;;;;4974417;28;20218;-81
2022/06/29 13:02:21;;;;;;;1.48;1.23;;;25.80;99.90;;;;;;4973804;28;20607;-82
2022/06/29 13:04:48;;;;;;;3.22;1.73;;;25.80;99.90;;;;;;4974333;28;20208;-82
2022/06/29 13:07:16;;;;;;;1.90;1.38;;;25.90;99.90;;;;;;4974813;28;20225;-82
2022/06/29 13:09:42;;;;;;;1.50;1.40;;;25.80;99.90;;;;;;4977124;28;20229;-82
2022/06/29 13:12:09;;;;;;;1.63;1.52;;;25.90;99.90;;;;;;4976947;28;20198;-81
2022/06/29 13:14:36;;;;;;;2.03;1.33;;;26.00;99.90;;;;;;4976910;28;20723;-83
2022/06/29 13:17:03;;;;;;;1.40;1.30;;;25.90;99.90;;;;;;4977517;28;20225;-82